createdAt,value
2016-09-15T00:00:20.449Z,19.26
2016-09-15T00:01:20.400Z,19.19
2016-09-15T00:02:20.410Z,19.17
2016-09-15T00:03:20.124Z,19.22
2016-09-15T00:04:20.791Z,19.2
2016-09-15T00:05:20.839Z,19.16
2016-09-15T00:06:20.640Z,19.2
2016-09-15T00:07:20.854Z,19.15
2016-09-15T00:08:20.880Z,19.11
2016-09-15T00:09:20.280Z,19.07
2016-09-15T00:10:20.629Z,19.11
2016-09-15T00:11:20.672Z,18.96
2016-09-15T00:12:20.360Z,19
2016-09-15T00:13:21.011Z,18.94
2016-09-15T00:14:21.030Z,18.96
2016-09-15T00:15:21.051Z,18.98
2016-09-15T00:16:21.080Z,18.97
2016-09-15T00:17:20.480Z,18.88
2016-09-15T00:18:21.119Z,18.91
2016-09-15T00:19:20.531Z,18.91
2016-09-15T00:20:20.542Z,18.83
2016-09-15T00:21:21.198Z,18.88
2016-09-15T00:22:21.222Z,18.83
2016-09-15T00:23:21.049Z,18.92
2016-09-15T00:24:20.951Z,18.92
2016-09-15T00:25:20.985Z,18.78
2016-09-15T00:26:21.323Z,18.76
2016-09-15T00:27:21.038Z,18.82
2016-09-15T00:28:21.070Z,18.78
2016-09-15T00:29:21.079Z,18.7
2016-09-15T00:30:21.103Z,18.73
2016-09-15T00:31:21.145Z,18.7
2016-09-15T00:32:21.454Z,18.67
2016-09-15T00:33:21.168Z,18.68
2016-09-15T00:34:21.512Z,18.66
2016-09-15T00:35:20.911Z,18.7
2016-09-15T00:36:21.261Z,18.67
2016-09-15T00:37:21.272Z,18.73
2016-09-15T00:38:21.301Z,18.61
2016-09-15T00:39:21.061Z,18.64
2016-09-15T00:40:21.019Z,18.67
2016-09-15T00:41:21.363Z,18.7
2016-09-15T00:42:21.410Z,18.67
2016-09-15T00:43:21.397Z,18.68
2016-09-15T00:44:21.438Z,18.63
2016-09-15T00:45:21.461Z,18.66
2016-09-15T00:46:21.170Z,18.61
2016-09-15T00:47:21.833Z,18.61
2016-09-15T00:48:21.532Z,18.6
2016-09-15T00:49:21.566Z,18.58
2016-09-15T00:50:21.577Z,18.55
2016-09-15T00:51:21.605Z,18.58
2016-09-15T00:52:21.321Z,18.53
2016-09-15T00:53:21.348Z,18.51
2016-09-15T00:54:21.692Z,18.55
2016-09-15T00:55:21.693Z,18.48
2016-09-15T00:56:21.727Z,18.45
2016-09-15T00:57:22.053Z,18.46
2016-09-15T00:58:21.770Z,18.42
2016-09-15T00:59:21.789Z,18.43
2016-09-15T01:00:21.507Z,18.39
2016-09-15T01:01:21.534Z,18.41
2016-09-15T01:02:21.858Z,18.41
2016-09-15T01:03:21.883Z,18.34
2016-09-15T01:04:22.223Z,18.39
2016-09-15T01:05:21.934Z,18.37
2016-09-15T01:06:22.313Z,18.27
2016-09-15T01:07:22.439Z,18.31
2016-09-15T01:08:22.068Z,18.27
2016-09-15T01:09:22.052Z,18.28
2016-09-15T01:10:22.054Z,18.3
2016-09-15T01:11:22.083Z,18.19
2016-09-15T01:12:22.425Z,18.24
2016-09-15T01:13:22.125Z,18.13
2016-09-15T01:14:22.463Z,18.16
2016-09-15T01:15:22.178Z,18.12
2016-09-15T01:16:22.503Z,18.09
2016-09-15T01:17:22.224Z,18.15
2016-09-15T01:18:22.568Z,18.06
2016-09-15T01:19:22.363Z,18.11
2016-09-15T01:20:22.588Z,18.15
2016-09-15T01:21:22.681Z,18.13
2016-09-15T01:22:22.334Z,18.15
2016-09-15T01:23:22.360Z,18.16
2016-09-15T01:24:22.694Z,18.21
2016-09-15T01:25:22.423Z,18.06
2016-09-15T01:26:22.444Z,18.16
2016-09-15T01:27:22.765Z,18.09
2016-09-15T01:28:22.543Z,18.08
2016-09-15T01:29:22.535Z,18.08
2016-09-15T01:30:22.843Z,17.98
2016-09-15T01:31:22.565Z,18.03
2016-09-15T01:32:22.586Z,18.06
2016-09-15T01:33:22.653Z,18.03
2016-09-15T01:34:22.946Z,18.06
2016-09-15T01:35:22.653Z,18.02
2016-09-15T01:36:22.378Z,17.97
2016-09-15T01:37:23.005Z,17.97
2016-09-15T01:38:22.414Z,17.98
2016-09-15T01:39:22.484Z,17.98
2016-09-15T01:40:23.069Z,18.03
2016-09-15T01:41:23.213Z,17.97
2016-09-15T01:42:22.503Z,17.93
2016-09-15T01:43:22.839Z,17.88
2016-09-15T01:44:22.876Z,17.94
2016-09-15T01:45:22.574Z,17.9
2016-09-15T01:46:23.265Z,17.91
2016-09-15T01:47:22.933Z,17.84
2016-09-15T01:48:22.656Z,17.78
2016-09-15T01:49:23.285Z,17.79
2016-09-15T01:50:22.981Z,17.79
2016-09-15T01:51:22.716Z,17.76
2016-09-15T01:52:23.343Z,17.75
2016-09-15T01:53:23.207Z,17.75
2016-09-15T01:54:23.083Z,17.73
2016-09-15T01:55:23.486Z,17.76
2016-09-15T01:56:23.446Z,17.73
2016-09-15T01:57:23.155Z,17.72
2016-09-15T01:58:23.168Z,17.72
2016-09-15T01:59:23.206Z,17.6
2016-09-15T02:00:23.295Z,17.66
2016-09-15T02:01:23.300Z,17.59
2016-09-15T02:02:22.963Z,17.59
2016-09-15T02:03:23.611Z,17.69
2016-09-15T02:04:23.334Z,17.63
2016-09-15T02:05:23.644Z,17.71
2016-09-15T02:06:23.374Z,17.69
2016-09-15T02:07:23.704Z,17.72
2016-09-15T02:08:23.414Z,17.59
2016-09-15T02:09:23.433Z,17.54
2016-09-15T02:10:23.137Z,17.59
2016-09-15T02:11:23.791Z,17.53
2016-09-15T02:12:23.503Z,17.56
2016-09-15T02:13:23.835Z,17.59
2016-09-15T02:14:23.237Z,17.6
2016-09-15T02:15:23.561Z,17.54
2016-09-15T02:16:23.894Z,17.53
2016-09-15T02:17:23.925Z,17.39
2016-09-15T02:18:23.948Z,17.37
2016-09-15T02:19:23.965Z,17.38
2016-09-15T02:20:23.384Z,17.41
2016-09-15T02:21:23.721Z,17.37
2016-09-15T02:22:23.436Z,17.46
2016-09-15T02:23:24.076Z,17.57
2016-09-15T02:24:23.483Z,17.53
2016-09-15T02:25:24.127Z,17.52
2016-09-15T02:26:23.837Z,17.52
2016-09-15T02:27:23.544Z,17.38
2016-09-15T02:28:24.209Z,17.44
2016-09-15T02:29:23.617Z,17.41
2016-09-15T02:30:23.608Z,17.39
2016-09-15T02:31:23.634Z,17.35
2016-09-15T02:32:23.975Z,17.35
2016-09-15T02:33:23.984Z,17.37
2016-09-15T02:34:24.016Z,17.34
2016-09-15T02:35:24.034Z,17.31
2016-09-15T02:36:24.138Z,17.24
2016-09-15T02:37:24.384Z,17.24
2016-09-15T02:38:24.551Z,17.16
2016-09-15T02:39:24.135Z,17.16
2016-09-15T02:40:23.827Z,17.14
2016-09-15T02:41:24.182Z,17.14
2016-09-15T02:42:24.505Z,17.12
2016-09-15T02:43:24.543Z,17.05
2016-09-15T02:44:24.562Z,17.07
2016-09-15T02:45:24.278Z,17.04
2016-09-15T02:46:24.284Z,17.04
2016-09-15T02:47:24.629Z,16.97
2016-09-15T02:48:24.653Z,16.92
2016-09-15T02:49:24.664Z,16.92
2016-09-15T02:50:24.375Z,16.83
2016-09-15T02:51:24.725Z,16.83
2016-09-15T02:52:24.406Z,16.8
2016-09-15T02:53:24.133Z,16.83
2016-09-15T02:54:24.894Z,16.73
2016-09-15T02:55:24.186Z,16.8
2016-09-15T02:56:24.214Z,16.65
2016-09-15T02:57:24.547Z,16.69
2016-09-15T02:58:24.265Z,16.57
2016-09-15T02:59:24.906Z,16.59
2016-09-15T03:00:24.920Z,16.58
2016-09-15T03:01:24.335Z,16.57
2016-09-15T03:02:24.651Z,16.46
2016-09-15T03:03:24.988Z,16.41
2016-09-15T03:04:25.118Z,16.4
2016-09-15T03:05:24.754Z,16.36
2016-09-15T03:06:24.448Z,16.37
2016-09-15T03:07:24.758Z,16.36
2016-09-15T03:08:24.485Z,16.25
2016-09-15T03:09:25.125Z,16.29
2016-09-15T03:10:24.553Z,16.25
2016-09-15T03:11:25.174Z,16.24
2016-09-15T03:12:25.195Z,16.21
2016-09-15T03:13:24.994Z,16.18
2016-09-15T03:14:25.244Z,16.18
2016-09-15T03:15:25.353Z,16.17
2016-09-15T03:16:25.008Z,16.21
2016-09-15T03:17:24.694Z,16.24
2016-09-15T03:18:25.064Z,16.18
2016-09-15T03:19:24.744Z,16.17
2016-09-15T03:20:25.385Z,16.18
2016-09-15T03:21:25.405Z,16.12
2016-09-15T03:22:25.114Z,16.13
2016-09-15T03:23:25.645Z,16
2016-09-15T03:24:25.466Z,16.08
2016-09-15T03:25:24.913Z,16.03
2016-09-15T03:26:25.217Z,16.02
2016-09-15T03:27:25.235Z,15.96
2016-09-15T03:28:25.557Z,15.92
2016-09-15T03:29:24.963Z,15.96
2016-09-15T03:30:25.593Z,16.03
2016-09-15T03:31:25.634Z,16.02
2016-09-15T03:32:25.344Z,16.06
2016-09-15T03:33:25.363Z,16.05
2016-09-15T03:34:25.374Z,16.03
2016-09-15T03:35:25.407Z,15.99
2016-09-15T03:36:25.735Z,16.03
2016-09-15T03:37:25.765Z,15.96
2016-09-15T03:38:25.771Z,15.94
2016-09-15T03:39:25.794Z,15.98
2016-09-15T03:40:25.873Z,15.98
2016-09-15T03:41:25.541Z,15.96
2016-09-15T03:42:25.565Z,15.96
2016-09-15T03:43:25.589Z,15.98
2016-09-15T03:44:25.594Z,15.91
2016-09-15T03:45:25.933Z,15.96
2016-09-15T03:46:25.338Z,15.88
2016-09-15T03:47:25.973Z,15.87
2016-09-15T03:48:25.692Z,15.94
2016-09-15T03:49:25.416Z,15.99
2016-09-15T03:50:25.744Z,15.92
2016-09-15T03:51:26.174Z,15.96
2016-09-15T03:52:26.092Z,15.92
2016-09-15T03:53:25.502Z,15.91
2016-09-15T03:54:25.820Z,15.94
2016-09-15T03:55:26.163Z,15.94
2016-09-15T03:56:25.548Z,16.02
2016-09-15T03:57:25.901Z,15.94
2016-09-15T03:58:26.236Z,16.02
2016-09-15T03:59:25.940Z,16.06
2016-09-15T04:00:25.963Z,16.05
2016-09-15T04:01:25.671Z,16.03
2016-09-15T04:02:25.702Z,16.03
2016-09-15T04:03:26.029Z,16.03
2016-09-15T04:04:26.366Z,16.09
2016-09-15T04:05:25.766Z,16.02
2016-09-15T04:06:26.416Z,16.05
2016-09-15T04:07:26.108Z,16.06
2016-09-15T04:08:26.143Z,16.06
2016-09-15T04:09:26.159Z,16.09
2016-09-15T04:10:26.183Z,16.03
2016-09-15T04:11:26.207Z,16.09
2016-09-15T04:12:26.602Z,16.05
2016-09-15T04:13:26.247Z,16.03
2016-09-15T04:14:26.270Z,16.05
2016-09-15T04:15:26.278Z,16.06
2016-09-15T04:16:26.640Z,16.06
2016-09-15T04:17:26.043Z,16.06
2016-09-15T04:18:26.691Z,16.06
2016-09-15T04:19:26.370Z,16.03
2016-09-15T04:20:26.731Z,15.96
2016-09-15T04:21:26.433Z,16.02
2016-09-15T04:22:26.504Z,15.99
2016-09-15T04:23:26.822Z,16.03
2016-09-15T04:24:26.188Z,16.08
2016-09-15T04:25:26.529Z,16.05
2016-09-15T04:26:26.569Z,16.02
2016-09-15T04:27:26.564Z,16.03
2016-09-15T04:28:26.994Z,16.22
2016-09-15T04:29:26.611Z,16.24
2016-09-15T04:30:26.322Z,16.21
2016-09-15T04:31:26.652Z,16.22
2016-09-15T04:32:26.372Z,16.18
2016-09-15T04:33:26.687Z,16.06
2016-09-15T04:34:26.721Z,16.16
2016-09-15T04:35:26.744Z,16.18
2016-09-15T04:36:26.766Z,16.17
2016-09-15T04:37:27.186Z,16.06
2016-09-15T04:38:27.172Z,16.16
2016-09-15T04:39:27.208Z,16.13
2016-09-15T04:40:27.237Z,16.16
2016-09-15T04:41:27.219Z,16.16
2016-09-15T04:42:26.902Z,16.09
2016-09-15T04:43:26.907Z,16.17
2016-09-15T04:44:27.240Z,16.13
2016-09-15T04:45:26.964Z,16.02
2016-09-15T04:46:27.292Z,16.17
2016-09-15T04:47:27.003Z,16.17
2016-09-15T04:48:27.021Z,16.21
2016-09-15T04:49:26.737Z,16.21
2016-09-15T04:50:27.440Z,16.24
2016-09-15T04:51:26.800Z,16.17
2016-09-15T04:52:27.439Z,16.21
2016-09-15T04:53:27.149Z,16.12
2016-09-15T04:54:26.860Z,16.08
2016-09-15T04:55:27.191Z,16.18
2016-09-15T04:56:27.202Z,16.22
2016-09-15T04:57:27.299Z,16.18
2016-09-15T04:58:27.250Z,16.13
2016-09-15T04:59:27.590Z,16.16
2016-09-15T05:00:26.987Z,16.17
2016-09-15T05:01:27.057Z,16.17
2016-09-15T05:02:27.655Z,16.25
2016-09-15T05:03:27.362Z,16.22
2016-09-15T05:04:27.390Z,16.21
2016-09-15T05:05:27.411Z,16.29
2016-09-15T05:06:27.430Z,16.29
2016-09-15T05:07:27.146Z,16.28
2016-09-15T05:08:27.471Z,16.26
2016-09-15T05:09:27.492Z,16.29
2016-09-15T05:10:27.828Z,16.28
2016-09-15T05:11:27.853Z,16.25
2016-09-15T05:12:27.573Z,16.29
2016-09-15T05:13:27.601Z,16.26
2016-09-15T05:14:27.612Z,16.24
2016-09-15T05:15:27.621Z,16.36
2016-09-15T05:16:27.337Z,16.41
2016-09-15T05:17:27.671Z,16.41
2016-09-15T05:18:28.007Z,16.39
2016-09-15T05:19:28.010Z,16.41
2016-09-15T05:20:28.053Z,16.4
2016-09-15T05:21:27.785Z,16.5
2016-09-15T05:22:28.103Z,16.5
2016-09-15T05:23:27.801Z,16.49
2016-09-15T05:24:27.832Z,16.41
2016-09-15T05:25:27.853Z,16.51
2016-09-15T05:26:28.182Z,16.57
2016-09-15T05:27:27.900Z,16.61
2016-09-15T05:28:27.908Z,16.55
2016-09-15T05:29:28.450Z,16.59
2016-09-15T05:30:27.950Z,16.69
2016-09-15T05:31:28.452Z,16.66
2016-09-15T05:32:28.471Z,16.69
2016-09-15T05:33:27.724Z,16.8
2016-09-15T05:34:28.053Z,16.84
2016-09-15T05:35:28.481Z,16.87
2016-09-15T05:36:28.693Z,16.83
2016-09-15T05:37:27.813Z,16.86
2016-09-15T05:38:28.140Z,16.8
2016-09-15T05:39:28.209Z,16.97
2016-09-15T05:40:28.700Z,17.05
2016-09-15T05:41:28.204Z,17.07
2016-09-15T05:42:28.236Z,17.17
2016-09-15T05:43:28.251Z,17.14
2016-09-15T05:44:28.673Z,17.19
2016-09-15T05:45:28.290Z,17.16
2016-09-15T05:46:28.331Z,17.24
2016-09-15T05:47:28.541Z,17.3
2016-09-15T05:48:28.569Z,17.37
2016-09-15T05:49:28.780Z,17.34
2016-09-15T05:50:28.575Z,17.39
2016-09-15T05:51:28.758Z,17.47
2016-09-15T05:52:28.686Z,17.54
2016-09-15T05:53:28.731Z,17.59
2016-09-15T05:54:28.803Z,17.69
2016-09-15T05:55:28.820Z,17.75
2016-09-15T05:56:28.594Z,18.02
2016-09-15T05:57:28.842Z,18.12
2016-09-15T05:58:28.620Z,18.61
2016-09-15T05:59:28.793Z,18.88
2016-09-15T06:00:28.651Z,19.27
2016-09-15T06:01:28.826Z,19.56
2016-09-15T06:02:28.693Z,19.87
2016-09-15T06:03:28.758Z,19.87
2016-09-15T06:04:29.051Z,20.11
2016-09-15T06:05:28.754Z,20.29
2016-09-15T06:06:29.091Z,20.49
2016-09-15T06:07:28.801Z,20.53
2016-09-15T06:08:28.665Z,20.63
2016-09-15T06:09:29.283Z,20.71
2016-09-15T06:10:29.251Z,20.83
2016-09-15T06:11:28.675Z,20.95
2016-09-15T06:12:29.293Z,20.95
2016-09-15T06:13:28.964Z,21.11
2016-09-15T06:14:28.984Z,21.13
2016-09-15T06:15:29.321Z,21.47
2016-09-15T06:16:29.181Z,21.47
2016-09-15T06:17:29.043Z,21.45
2016-09-15T06:18:29.081Z,21.48
2016-09-15T06:19:29.101Z,21.65
2016-09-15T06:20:29.577Z,21.63
2016-09-15T06:21:29.154Z,21.54
2016-09-15T06:22:29.184Z,21.48
2016-09-15T06:23:29.212Z,21.72
2016-09-15T06:24:29.604Z,21.72
2016-09-15T06:25:29.260Z,21.68
2016-09-15T06:26:29.599Z,21.5
2016-09-15T06:27:29.013Z,21.66
2016-09-15T06:28:29.350Z,21.69
2016-09-15T06:29:29.361Z,21.63
2016-09-15T06:30:29.403Z,21.91
2016-09-15T06:31:29.421Z,22.03
2016-09-15T06:32:29.750Z,22.04
2016-09-15T06:33:29.199Z,22.03
2016-09-15T06:34:29.502Z,22.08
2016-09-15T06:35:29.582Z,22.08
2016-09-15T06:36:29.559Z,22.3
2016-09-15T06:37:29.584Z,22.52
2016-09-15T06:38:29.922Z,22.41
2016-09-15T06:39:29.947Z,22.56
2016-09-15T06:40:29.657Z,22.55
2016-09-15T06:41:29.692Z,22.65
2016-09-15T06:42:30.114Z,22.65
2016-09-15T06:43:30.054Z,22.4
2016-09-15T06:44:29.773Z,22.67
2016-09-15T06:45:30.102Z,22.77
2016-09-15T06:46:29.831Z,22.83
2016-09-15T06:47:30.160Z,22.92
2016-09-15T06:48:29.876Z,22.98
2016-09-15T06:49:29.910Z,23.07
2016-09-15T06:50:30.229Z,23.11
2016-09-15T06:51:30.268Z,23.14
2016-09-15T06:52:29.972Z,23.16
2016-09-15T06:53:30.339Z,23.33
2016-09-15T06:54:30.040Z,23.34
2016-09-15T06:55:30.070Z,23.11
2016-09-15T06:56:30.404Z,23.4
2016-09-15T06:57:30.129Z,23.63
2016-09-15T06:58:30.148Z,23.91
2016-09-15T06:59:30.491Z,23.88
2016-09-15T07:00:29.896Z,23.95
2016-09-15T07:01:29.926Z,23.77
2016-09-15T07:02:30.271Z,23.85
2016-09-15T07:03:29.975Z,23.44
2016-09-15T07:04:30.310Z,23.82
2016-09-15T07:05:30.375Z,24.04
2016-09-15T07:06:30.054Z,23.99
2016-09-15T07:07:30.399Z,23.85
2016-09-15T07:08:30.431Z,23.91
2016-09-15T07:09:30.769Z,23.76
2016-09-15T07:10:30.481Z,24.03
2016-09-15T07:11:30.811Z,24.09
2016-09-15T07:12:30.853Z,24
2016-09-15T07:13:30.245Z,24.25
2016-09-15T07:14:30.600Z,24.4
2016-09-15T07:15:30.957Z,24.66
2016-09-15T07:16:30.340Z,24.48
2016-09-15T07:17:30.374Z,24.25
2016-09-15T07:18:30.721Z,24.16
2016-09-15T07:19:30.424Z,24.14
2016-09-15T07:20:30.748Z,24.32
2016-09-15T07:21:30.790Z,24.19
2016-09-15T07:22:30.820Z,24.36
2016-09-15T07:23:30.854Z,24.43
2016-09-15T07:24:30.877Z,24.48
2016-09-15T07:25:31.237Z,24.71
2016-09-15T07:26:31.320Z,24.63
2016-09-15T07:27:31.318Z,24.53
2016-09-15T07:28:31.291Z,24.36
2016-09-15T07:29:31.015Z,24.43
2016-09-15T07:30:30.732Z,24.41
2016-09-15T07:31:30.761Z,24.56
2016-09-15T07:32:31.099Z,24.25
2016-09-15T07:33:31.421Z,24
2016-09-15T07:34:31.159Z,23.76
2016-09-15T07:35:31.318Z,23.2
2016-09-15T07:36:31.361Z,22.78
2016-09-15T07:37:31.270Z,22.38
2016-09-15T07:38:31.718Z,22.16
2016-09-15T07:39:31.667Z,21.97
2016-09-15T07:40:31.415Z,21.81
2016-09-15T07:41:31.236Z,21.62
2016-09-15T07:42:31.140Z,21.5
2016-09-15T07:43:31.400Z,21.47
2016-09-15T07:44:31.862Z,21.32
2016-09-15T07:45:31.763Z,21.29
2016-09-15T07:46:31.871Z,21.29
2016-09-15T07:47:31.819Z,21.35
2016-09-15T07:48:31.864Z,21.33
2016-09-15T07:49:31.569Z,21.28
2016-09-15T07:50:32.370Z,21.33
2016-09-15T07:51:31.601Z,21.35
2016-09-15T07:52:31.641Z,21.47
2016-09-15T07:53:31.755Z,21.53
2016-09-15T07:54:31.996Z,21.48
2016-09-15T07:55:31.709Z,21.53
2016-09-15T07:56:31.748Z,21.56
2016-09-15T07:57:31.770Z,21.58
2016-09-15T07:58:32.100Z,21.5
2016-09-15T07:59:31.499Z,21.58
2016-09-15T08:00:31.574Z,21.45
2016-09-15T08:01:31.875Z,21.6
2016-09-15T08:02:32.198Z,21.6
2016-09-15T08:03:31.922Z,21.68
2016-09-15T08:04:31.951Z,21.75
2016-09-15T08:05:31.671Z,21.88
2016-09-15T08:06:31.999Z,21.81
2016-09-15T08:07:32.023Z,21.85
2016-09-15T08:08:32.523Z,21.99
2016-09-15T08:09:32.076Z,21.94
2016-09-15T08:10:32.466Z,21.88
2016-09-15T08:11:32.453Z,21.97
2016-09-15T08:12:32.460Z,22.15
2016-09-15T08:13:32.491Z,22.18
2016-09-15T08:14:32.538Z,22.34
2016-09-15T08:15:32.549Z,22.28
2016-09-15T08:16:32.588Z,22.26
2016-09-15T08:17:32.608Z,22.23
2016-09-15T08:18:32.319Z,22.21
2016-09-15T08:19:32.335Z,22.25
2016-09-15T08:20:32.680Z,22.33
2016-09-15T08:21:32.380Z,22.4
2016-09-15T08:22:32.845Z,22.49
2016-09-15T08:23:32.747Z,22.53
2016-09-15T08:24:32.473Z,22.58
2016-09-15T08:25:32.826Z,22.51
2016-09-15T08:26:32.830Z,22.49
2016-09-15T08:27:32.557Z,22.63
2016-09-15T08:28:33.118Z,22.77
2016-09-15T08:29:32.996Z,22.65
2016-09-15T08:30:32.990Z,22.68
2016-09-15T08:31:32.653Z,22.61
2016-09-15T08:32:32.675Z,22.7
2016-09-15T08:33:33.021Z,22.76
2016-09-15T08:34:33.046Z,22.88
2016-09-15T08:35:32.895Z,22.89
2016-09-15T08:36:33.083Z,22.88
2016-09-15T08:37:32.856Z,22.77
2016-09-15T08:38:33.150Z,22.83
2016-09-15T08:39:33.002Z,22.93
2016-09-15T08:40:33.242Z,23.04
2016-09-15T08:41:33.222Z,23.07
2016-09-15T08:42:32.939Z,23.14
2016-09-15T08:43:32.969Z,23.18
2016-09-15T08:44:32.780Z,23.28
2016-09-15T08:45:33.064Z,23.33
2016-09-15T08:46:33.337Z,23.29
2016-09-15T08:47:33.140Z,23.39
2016-09-15T08:48:33.083Z,23.4
2016-09-15T08:49:33.119Z,23.52
2016-09-15T08:50:33.261Z,23.52
2016-09-15T08:51:33.573Z,23.59
2016-09-15T08:52:33.253Z,23.59
2016-09-15T08:53:32.921Z,23.59
2016-09-15T08:54:33.263Z,23.7
2016-09-15T08:55:33.581Z,23.71
2016-09-15T08:56:33.313Z,23.77
2016-09-15T08:57:33.333Z,23.71
2016-09-15T08:58:33.352Z,23.84
2016-09-15T08:59:33.685Z,23.99
2016-09-15T09:00:33.104Z,24.03
2016-09-15T09:01:33.122Z,23.99
2016-09-15T09:02:33.451Z,23.99
2016-09-15T09:03:33.202Z,23.89
2016-09-15T09:04:33.523Z,23.99
2016-09-15T09:05:33.548Z,24.11
2016-09-15T09:06:33.571Z,24
2016-09-15T09:07:33.914Z,24.14
2016-09-15T09:08:33.622Z,24.11
2016-09-15T09:09:33.645Z,24.16
2016-09-15T09:10:33.363Z,24.18
2016-09-15T09:11:33.386Z,24.25
2016-09-15T09:12:34.043Z,24.29
2016-09-15T09:13:33.759Z,24.37
2016-09-15T09:14:33.483Z,24.36
2016-09-15T09:15:33.813Z,24.4
2016-09-15T09:16:33.844Z,24.62
2016-09-15T09:17:33.853Z,24.55
2016-09-15T09:18:33.592Z,24.63
2016-09-15T09:19:33.925Z,24.58
2016-09-15T09:20:34.264Z,24.61
2016-09-15T09:21:34.388Z,24.66
2016-09-15T09:22:34.005Z,24.68
2016-09-15T09:23:33.715Z,24.75
2016-09-15T09:24:34.065Z,24.75
2016-09-15T09:25:34.085Z,24.77
2016-09-15T09:26:33.786Z,24.75
2016-09-15T09:27:34.139Z,24.89
2016-09-15T09:28:34.155Z,25.03
2016-09-15T09:29:34.188Z,25.04
2016-09-15T09:30:34.785Z,25.19
2016-09-15T09:31:34.418Z,25.15
2016-09-15T09:32:34.426Z,25.11
2016-09-15T09:33:34.775Z,24.93
2016-09-15T09:34:34.435Z,25.04
2016-09-15T09:35:34.130Z,25.14
2016-09-15T09:36:34.426Z,25.21
2016-09-15T09:37:34.478Z,25.18
2016-09-15T09:38:34.430Z,25.19
2016-09-15T09:39:34.828Z,25.21
2016-09-15T09:40:34.544Z,25.21
2016-09-15T09:41:34.515Z,25.22
2016-09-15T09:42:34.236Z,25.24
2016-09-15T09:43:34.265Z,25.25
2016-09-15T09:44:34.960Z,25.31
2016-09-15T09:45:35.004Z,25.33
2016-09-15T09:46:34.344Z,25.48
2016-09-15T09:47:34.993Z,25.43
2016-09-15T09:48:35.023Z,25.51
2016-09-15T09:49:34.742Z,25.52
2016-09-15T09:50:34.863Z,25.43
2016-09-15T09:51:34.794Z,25.4
2016-09-15T09:52:35.114Z,25.4
2016-09-15T09:53:34.976Z,25.46
2016-09-15T09:54:35.176Z,25.54
2016-09-15T09:55:35.320Z,25.55
2016-09-15T09:56:35.264Z,25.58
2016-09-15T09:57:35.266Z,25.61
2016-09-15T09:58:34.976Z,25.73
2016-09-15T09:59:34.706Z,25.78
2016-09-15T10:00:35.031Z,25.8
2016-09-15T10:01:35.377Z,25.68
2016-09-15T10:02:35.093Z,25.8
2016-09-15T10:03:35.127Z,25.62
2016-09-15T10:04:35.446Z,25.7
2016-09-15T10:05:35.250Z,25.67
2016-09-15T10:06:35.193Z,25.74
2016-09-15T10:07:35.240Z,25.83
2016-09-15T10:08:35.291Z,25.77
2016-09-15T10:09:35.296Z,25.78
2016-09-15T10:10:35.597Z,25.78
2016-09-15T10:11:35.036Z,25.71
2016-09-15T10:12:35.379Z,25.63
2016-09-15T10:13:35.394Z,25.62
2016-09-15T10:14:35.413Z,25.66
2016-09-15T10:15:35.754Z,25.71
2016-09-15T10:16:35.225Z,25.66
2016-09-15T10:17:35.504Z,25.63
2016-09-15T10:18:35.865Z,25.67
2016-09-15T10:19:35.553Z,25.73
2016-09-15T10:20:35.585Z,25.76
2016-09-15T10:21:35.924Z,25.61
2016-09-15T10:22:35.336Z,25.62
2016-09-15T10:23:35.967Z,25.67
2016-09-15T10:24:35.385Z,25.63
2016-09-15T10:25:35.726Z,25.77
2016-09-15T10:26:35.740Z,25.7
2016-09-15T10:27:35.469Z,25.68
2016-09-15T10:28:36.114Z,25.73
2016-09-15T10:29:35.851Z,25.77
2016-09-15T10:30:35.544Z,25.7
2016-09-15T10:31:35.566Z,25.78
2016-09-15T10:32:35.906Z,25.8
2016-09-15T10:33:36.233Z,25.91
2016-09-15T10:34:35.954Z,25.89
2016-09-15T10:35:35.979Z,25.91
2016-09-15T10:36:35.715Z,25.96
2016-09-15T10:37:35.721Z,25.92
2016-09-15T10:38:35.767Z,25.95
2016-09-15T10:39:36.103Z,26.06
2016-09-15T10:40:36.146Z,26.18
2016-09-15T10:41:36.157Z,26.11
2016-09-15T10:42:36.492Z,26.22
2016-09-15T10:43:36.225Z,26.27
2016-09-15T10:44:36.236Z,26.19
2016-09-15T10:45:36.582Z,26.22
2016-09-15T10:46:36.297Z,26.13
2016-09-15T10:47:36.336Z,26.19
2016-09-15T10:48:36.350Z,26.19
2016-09-15T10:49:36.379Z,26.06
2016-09-15T10:50:36.433Z,25.99
2016-09-15T10:51:36.434Z,26.03
2016-09-15T10:52:36.778Z,26.07
2016-09-15T10:53:36.804Z,26.04
2016-09-15T10:54:36.824Z,26.11
2016-09-15T10:55:36.866Z,26.18
2016-09-15T10:56:36.267Z,26.23
2016-09-15T10:57:36.657Z,26.31
2016-09-15T10:58:36.315Z,26.22
2016-09-15T10:59:36.345Z,26.24
2016-09-15T11:00:36.363Z,26.3
2016-09-15T11:01:36.459Z,26.23
2016-09-15T11:02:37.042Z,26.44
2016-09-15T11:03:37.074Z,26.41
2016-09-15T11:04:37.114Z,26.45
2016-09-15T11:05:36.833Z,26.55
2016-09-15T11:06:37.175Z,26.46
2016-09-15T11:07:36.996Z,26.44
2016-09-15T11:08:36.916Z,26.52
2016-09-15T11:09:37.346Z,26.6
2016-09-15T11:10:36.953Z,26.59
2016-09-15T11:11:36.981Z,26.61
2016-09-15T11:12:36.715Z,26.61
2016-09-15T11:13:37.044Z,26.63
2016-09-15T11:14:37.075Z,26.66
2016-09-15T11:15:37.100Z,26.59
2016-09-15T11:16:37.129Z,26.53
2016-09-15T11:17:36.845Z,26.6
2016-09-15T11:18:37.495Z,26.61
2016-09-15T11:19:37.626Z,26.61
2016-09-15T11:20:37.562Z,26.6
2016-09-15T11:21:37.262Z,26.67
2016-09-15T11:22:37.618Z,26.63
2016-09-15T11:23:37.626Z,26.61
2016-09-15T11:24:37.354Z,26.74
2016-09-15T11:25:37.392Z,26.73
2016-09-15T11:26:37.393Z,26.74
2016-09-15T11:27:37.881Z,26.71
2016-09-15T11:28:37.454Z,26.79
2016-09-15T11:29:37.892Z,26.7
2016-09-15T11:30:37.513Z,26.73
2016-09-15T11:31:37.284Z,26.7
2016-09-15T11:32:37.874Z,26.59
2016-09-15T11:33:37.281Z,26.67
2016-09-15T11:34:37.934Z,26.76
2016-09-15T11:35:37.954Z,26.76
2016-09-15T11:36:37.683Z,26.81
2016-09-15T11:37:37.703Z,26.64
2016-09-15T11:38:38.055Z,26.67
2016-09-15T11:39:37.764Z,26.81
2016-09-15T11:40:38.103Z,26.79
2016-09-15T11:41:38.119Z,26.76
2016-09-15T11:42:37.843Z,26.73
2016-09-15T11:43:37.573Z,26.92
2016-09-15T11:44:37.903Z,26.83
2016-09-15T11:45:37.936Z,26.96
2016-09-15T11:46:37.961Z,26.98
2016-09-15T11:47:38.299Z,27.04
2016-09-15T11:48:38.014Z,27.08
2016-09-15T11:49:38.033Z,27.07
2016-09-15T11:50:38.363Z,27.05
2016-09-15T11:51:38.090Z,27.13
2016-09-15T11:52:38.435Z,27.11
2016-09-15T11:53:37.838Z,27.23
2016-09-15T11:54:38.162Z,27.19
2016-09-15T11:55:38.212Z,27.19
2016-09-15T11:56:37.935Z,27.07
2016-09-15T11:57:38.262Z,27.05
2016-09-15T11:58:37.981Z,26.97
2016-09-15T11:59:38.323Z,27.01
2016-09-15T12:00:38.668Z,27.04
2016-09-15T12:01:38.685Z,27.08
2016-09-15T12:02:38.723Z,27.04
2016-09-15T12:03:38.740Z,27.13
2016-09-15T12:04:38.459Z,27.15
2016-09-15T12:05:38.475Z,27.07
2016-09-15T12:06:38.828Z,27.04
2016-09-15T12:07:38.237Z,27.08
2016-09-15T12:08:38.869Z,27.08
2016-09-15T12:09:38.942Z,27.04
2016-09-15T12:10:38.311Z,27.04
2016-09-15T12:11:38.347Z,27.07
2016-09-15T12:12:38.693Z,27.11
2016-09-15T12:13:39.069Z,27.18
2016-09-15T12:14:38.798Z,27.04
2016-09-15T12:15:39.078Z,27.15
2016-09-15T12:16:38.576Z,27.11
2016-09-15T12:17:38.520Z,27.13
2016-09-15T12:18:38.567Z,27.08
2016-09-15T12:19:39.213Z,27.07
2016-09-15T12:20:38.902Z,27.03
2016-09-15T12:21:38.995Z,27.05
2016-09-15T12:22:38.987Z,27.05
2016-09-15T12:23:38.675Z,27.13
2016-09-15T12:24:39.325Z,27.2
2016-09-15T12:25:39.343Z,27.19
2016-09-15T12:26:39.078Z,27.26
2016-09-15T12:27:39.417Z,27.28
2016-09-15T12:28:39.438Z,27.16
2016-09-15T12:29:39.149Z,27.23
2016-09-15T12:30:39.577Z,27.25
2016-09-15T12:31:39.587Z,27.3
2016-09-15T12:32:38.951Z,27.26
2016-09-15T12:33:39.275Z,27.25
2016-09-15T12:34:39.296Z,27.2
2016-09-15T12:35:39.647Z,27.26
2016-09-15T12:36:39.665Z,27.26
2016-09-15T12:37:39.383Z,27.29
2016-09-15T12:38:39.149Z,27.33
2016-09-15T12:39:39.436Z,27.33
2016-09-15T12:40:39.782Z,27.35
2016-09-15T12:41:39.472Z,27.26
2016-09-15T12:42:39.833Z,27.26
2016-09-15T12:43:39.868Z,27.26
2016-09-15T12:44:39.623Z,27.22
2016-09-15T12:45:39.278Z,27.23
2016-09-15T12:46:39.945Z,27.11
2016-09-15T12:47:39.995Z,27.07
2016-09-15T12:48:39.697Z,27.08
2016-09-15T12:49:39.701Z,27.15
2016-09-15T12:50:39.754Z,27.22
2016-09-15T12:51:39.773Z,27.29
2016-09-15T12:52:40.128Z,27.33
2016-09-15T12:53:40.163Z,27.34
2016-09-15T12:54:40.153Z,27.33